Industry, Illinois
Current Conditions -  °F | °C
As of 1:35 PM on Friday 28 Nov 2014 (Local Time) from KMQB Reporting Station
Clear Clear  
Wind Chill: 27°   Ceiling: Unl
Heat Index: 36°   Visibility: 7mi
Dew Point: 31°   Wind: 14mph
Humidity: 82%   Direction: 160°SSE
Pressure: 29.96"   Gusts: NA
Location:  40.33°N, 90.61°W
Report Text: KMQB 281935Z AUTO 16012KT 7SM CLR 02/M01 A2996 RMK AO2 T00211007
Loading
Personal Weather Stations






























Interactive Weather Map New forecast layout! Learn more

10-Day Weather Forecast

Advertisements
Track Severe Weather on mobile